sensor_id;sensor_type;location;lat;lon;timestamp;P1;durP1;ratioP1;P2;durP2;ratioP2
19985;SDS011;10154;52.474;10.768;2023-01-13T00:02:20;0.60;;;0.30;;
19985;SDS011;10154;52.474;10.768;2023-01-13T00:04:45;1.37;;;0.30;;
19985;SDS011;10154;52.474;10.768;2023-01-13T00:07:11;1.00;;;0.40;;
19985;SDS011;10154;52.474;10.768;2023-01-13T00:09:36;0.73;;;0.40;;
19985;SDS011;10154;52.474;10.768;2023-01-13T00:12:02;0.77;;;0.30;;
19985;SDS011;10154;52.474;10.768;2023-01-13T00:14:28;0.90;;;0.40;;
19985;SDS011;10154;52.474;10.768;2023-01-13T00:16:56;0.40;;;0.40;;
19985;SDS011;10154;52.474;10.768;2023-01-13T00:19:21;0.77;;;0.30;;
19985;SDS011;10154;52.474;10.768;2023-01-13T00:21:47;0.20;;;0.20;;
19985;SDS011;10154;52.474;10.768;2023-01-13T00:24:12;0.77;;;0.30;;
19985;SDS011;10154;52.474;10.768;2023-01-13T00:26:37;1.00;;;0.20;;
19985;SDS011;10154;52.474;10.768;2023-01-13T00:29:03;0.97;;;0.33;;
19985;SDS011;10154;52.474;10.768;2023-01-13T00:31:28;0.40;;;0.40;;
19985;SDS011;10154;52.474;10.768;2023-01-13T00:33:57;0.97;;;0.50;;
19985;SDS011;10154;52.474;10.768;2023-01-13T00:36:24;0.47;;;0.40;;
19985;SDS011;10154;52.474;10.768;2023-01-13T00:38:49;1.33;;;0.40;;
19985;SDS011;10154;52.474;10.768;2023-01-13T00:41:15;0.70;;;0.27;;
19985;SDS011;10154;52.474;10.768;2023-01-13T00:43:45;0.93;;;0.30;;
19985;SDS011;10154;52.474;10.768;2023-01-13T00:46:12;0.47;;;0.30;;
19985;SDS011;10154;52.474;10.768;2023-01-13T00:48:38;2.40;;;0.30;;
19985;SDS011;10154;52.474;10.768;2023-01-13T00:51:05;1.17;;;0.77;;
19985;SDS011;10154;52.474;10.768;2023-01-13T00:53:33;2.50;;;0.40;;
19985;SDS011;10154;52.474;10.768;2023-01-13T00:56:00;0.30;;;0.30;;
19985;SDS011;10154;52.474;10.768;2023-01-13T00:58:29;1.03;;;0.30;;
19985;SDS011;10154;52.474;10.768;2023-01-13T01:00:58;0.30;;;0.20;;
19985;SDS011;10154;52.474;10.768;2023-01-13T01:03:25;1.70;;;0.30;;
19985;SDS011;10154;52.474;10.768;2023-01-13T01:05:50;0.83;;;0.30;;
19985;SDS011;10154;52.474;10.768;2023-01-13T01:08:15;0.30;;;0.20;;
19985;SDS011;10154;52.474;10.768;2023-01-13T01:10:41;0.70;;;0.40;;
19985;SDS011;10154;52.474;10.768;2023-01-13T01:13:06;0.47;;;0.23;;
19985;SDS011;10154;52.474;10.768;2023-01-13T01:15:32;0.20;;;0.20;;
19985;SDS011;10154;52.474;10.768;2023-01-13T01:17:57;1.10;;;0.20;;
19985;SDS011;10154;52.474;10.768;2023-01-13T01:20:22;0.20;;;0.20;;
19985;SDS011;10154;52.474;10.768;2023-01-13T01:22:47;0.20;;;0.20;;
19985;SDS011;10154;52.474;10.768;2023-01-13T01:25:13;0.73;;;0.40;;
19985;SDS011;10154;52.474;10.768;2023-01-13T01:27:38;1.33;;;0.30;;
19985;SDS011;10154;52.474;10.768;2023-01-13T01:30:04;0.97;;;0.30;;
19985;SDS011;10154;52.474;10.768;2023-01-13T01:32:29;0.23;;;0.23;;
19985;SDS011;10154;52.474;10.768;2023-01-13T01:34:58;0.30;;;0.30;;
19985;SDS011;10154;52.474;10.768;2023-01-13T01:37:23;0.73;;;0.30;;
19985;SDS011;10154;52.474;10.768;2023-01-13T01:39:48;1.70;;;0.33;;
19985;SDS011;10154;52.474;10.768;2023-01-13T01:42:14;0.33;;;0.33;;
19985;SDS011;10154;52.474;10.768;2023-01-13T01:44:59;1.70;;;0.40;;
19985;SDS011;10154;52.474;10.768;2023-01-13T01:47:26;0.40;;;0.20;;
19985;SDS011;10154;52.474;10.768;2023-01-13T01:49:52;0.30;;;0.30;;
19985;SDS011;10154;52.474;10.768;2023-01-13T01:52:21;0.40;;;0.33;;
19985;SDS011;10154;52.474;10.768;2023-01-13T01:54:54;1.27;;;0.20;;
19985;SDS011;10154;52.474;10.768;2023-01-13T02:00:05;1.03;;;0.30;;
19985;SDS011;10154;52.474;10.768;2023-01-13T02:02:31;0.30;;;0.30;;
19985;SDS011;10154;52.474;10.768;2023-01-13T02:04:56;0.50;;;0.30;;
19985;SDS011;10154;52.474;10.768;2023-01-13T02:07:24;1.00;;;0.40;;
19985;SDS011;10154;52.474;10.768;2023-01-13T02:09:51;1.67;;;0.40;;
19985;SDS011;10154;52.474;10.768;2023-01-13T02:12:18;1.83;;;0.37;;
19985;SDS011;10154;52.474;10.768;2023-01-13T02:14:57;1.47;;;0.30;;
19985;SDS011;10154;52.474;10.768;2023-01-13T02:33:15;1.03;;;0.40;;
19985;SDS011;10154;52.474;10.768;2023-01-13T02:38:34;1.63;;;0.60;;
19985;SDS011;10154;52.474;10.768;2023-01-13T02:41:07;0.97;;;0.50;;
19985;SDS011;10154;52.474;10.768;2023-01-13T02:43:57;0.93;;;0.60;;
19985;SDS011;10154;52.474;10.768;2023-01-13T02:46:51;1.37;;;0.40;;
19985;SDS011;10154;52.474;10.768;2023-01-13T02:49:27;1.03;;;0.50;;
19985;SDS011;10154;52.474;10.768;2023-01-13T02:51:59;0.63;;;0.30;;
19985;SDS011;10154;52.474;10.768;2023-01-13T02:54:29;1.00;;;0.40;;
19985;SDS011;10154;52.474;10.768;2023-01-13T02:56:55;0.40;;;0.30;;
19985;SDS011;10154;52.474;10.768;2023-01-13T02:59:22;1.40;;;0.30;;
19985;SDS011;10154;52.474;10.768;2023-01-13T03:01:50;1.23;;;0.27;;
19985;SDS011;10154;52.474;10.768;2023-01-13T03:07:28;1.07;;;0.30;;
19985;SDS011;10154;52.474;10.768;2023-01-13T03:10:05;3.00;;;0.40;;
19985;SDS011;10154;52.474;10.768;2023-01-13T03:15:29;0.97;;;0.43;;
19985;SDS011;10154;52.474;10.768;2023-01-13T03:18:13;1.43;;;0.40;;
19985;SDS011;10154;52.474;10.768;2023-01-13T03:20:51;1.77;;;0.40;;
19985;SDS011;10154;52.474;10.768;2023-01-13T03:23:32;1.73;;;0.40;;
19985;SDS011;10154;52.474;10.768;2023-01-13T03:28:41;0.43;;;0.40;;
19985;SDS011;10154;52.474;10.768;2023-01-13T03:31:14;4.03;;;0.40;;
19985;SDS011;10154;52.474;10.768;2023-01-13T03:33:46;2.97;;;0.60;;
19985;SDS011;10154;52.474;10.768;2023-01-13T03:36:15;4.50;;;0.63;;
19985;SDS011;10154;52.474;10.768;2023-01-13T03:38:46;2.83;;;0.47;;
19985;SDS011;10154;52.474;10.768;2023-01-13T03:41:26;4.07;;;0.80;;
19985;SDS011;10154;52.474;10.768;2023-01-13T03:44:14;1.73;;;0.53;;
19985;SDS011;10154;52.474;10.768;2023-01-13T03:47:06;3.63;;;0.80;;
19985;SDS011;10154;52.474;10.768;2023-01-13T03:52:06;4.13;;;0.60;;
19985;SDS011;10154;52.474;10.768;2023-01-13T03:54:35;4.80;;;0.87;;
19985;SDS011;10154;52.474;10.768;2023-01-13T03:57:06;1.93;;;0.70;;
19985;SDS011;10154;52.474;10.768;2023-01-13T03:59:35;4.57;;;0.70;;
19985;SDS011;10154;52.474;10.768;2023-01-13T04:02:11;7.17;;;0.80;;
19985;SDS011;10154;52.474;10.768;2023-01-13T04:04:46;7.07;;;1.20;;
19985;SDS011;10154;52.474;10.768;2023-01-13T04:10:20;3.97;;;0.70;;
19985;SDS011;10154;52.474;10.768;2023-01-13T04:13:00;7.27;;;1.20;;
19985;SDS011;10154;52.474;10.768;2023-01-13T04:20:43;7.33;;;0.93;;
19985;SDS011;10154;52.474;10.768;2023-01-13T04:23:10;7.23;;;1.03;;
19985;SDS011;10154;52.474;10.768;2023-01-13T04:25:37;6.63;;;1.10;;
19985;SDS011;10154;52.474;10.768;2023-01-13T04:28:04;8.10;;;1.30;;
19985;SDS011;10154;52.474;10.768;2023-01-13T04:30:29;6.17;;;1.20;;
19985;SDS011;10154;52.474;10.768;2023-01-13T04:32:55;9.30;;;1.47;;
19985;SDS011;10154;52.474;10.768;2023-01-13T04:35:20;7.07;;;1.27;;
19985;SDS011;10154;52.474;10.768;2023-01-13T04:37:45;8.10;;;1.30;;
19985;SDS011;10154;52.474;10.768;2023-01-13T04:40:11;11.47;;;1.70;;
19985;SDS011;10154;52.474;10.768;2023-01-13T04:42:36;8.57;;;1.20;;
19985;SDS011;10154;52.474;10.768;2023-01-13T04:45:02;7.17;;;1.27;;
19985;SDS011;10154;52.474;10.768;2023-01-13T04:47:27;8.67;;;1.30;;
19985;SDS011;10154;52.474;10.768;2023-01-13T04:49:53;3.63;;;1.10;;
19985;SDS011;10154;52.474;10.768;2023-01-13T04:52:18;8.40;;;1.23;;
19985;SDS011;10154;52.474;10.768;2023-01-13T04:54:43;9.80;;;1.60;;
19985;SDS011;10154;52.474;10.768;2023-01-13T04:57:09;6.53;;;1.10;;
19985;SDS011;10154;52.474;10.768;2023-01-13T04:59:34;7.60;;;1.47;;
19985;SDS011;10154;52.474;10.768;2023-01-13T05:01:59;7.43;;;1.33;;
19985;SDS011;10154;52.474;10.768;2023-01-13T05:04:25;8.90;;;1.30;;
19985;SDS011;10154;52.474;10.768;2023-01-13T05:06:51;9.40;;;1.70;;
19985;SDS011;10154;52.474;10.768;2023-01-13T05:09:16;8.53;;;1.80;;
19985;SDS011;10154;52.474;10.768;2023-01-13T05:11:41;9.80;;;1.60;;
19985;SDS011;10154;52.474;10.768;2023-01-13T05:14:25;9.10;;;1.50;;
19985;SDS011;10154;52.474;10.768;2023-01-13T05:17:11;11.63;;;2.20;;
19985;SDS011;10154;52.474;10.768;2023-01-13T05:19:48;13.13;;;1.60;;
19985;SDS011;10154;52.474;10.768;2023-01-13T05:22:13;14.97;;;1.70;;
19985;SDS011;10154;52.474;10.768;2023-01-13T05:24:58;8.30;;;1.43;;
19985;SDS011;10154;52.474;10.768;2023-01-13T05:27:41;10.17;;;1.40;;
19985;SDS011;10154;52.474;10.768;2023-01-13T05:30:07;7.67;;;1.60;;
19985;SDS011;10154;52.474;10.768;2023-01-13T05:32:33;10.00;;;1.50;;
19985;SDS011;10154;52.474;10.768;2023-01-13T05:34:59;12.57;;;1.73;;
19985;SDS011;10154;52.474;10.768;2023-01-13T05:37:24;14.70;;;1.40;;
19985;SDS011;10154;52.474;10.768;2023-01-13T05:39:50;13.57;;;1.90;;
19985;SDS011;10154;52.474;10.768;2023-01-13T05:42:35;13.77;;;2.23;;
19985;SDS011;10154;52.474;10.768;2023-01-13T05:45:19;13.20;;;1.70;;
19985;SDS011;10154;52.474;10.768;2023-01-13T05:47:44;9.13;;;1.80;;
19985;SDS011;10154;52.474;10.768;2023-01-13T05:50:09;10.33;;;1.60;;
19985;SDS011;10154;52.474;10.768;2023-01-13T05:52:35;9.90;;;1.57;;
19985;SDS011;10154;52.474;10.768;2023-01-13T05:55:00;10.37;;;1.37;;
19985;SDS011;10154;52.474;10.768;2023-01-13T05:57:25;12.73;;;2.20;;
19985;SDS011;10154;52.474;10.768;2023-01-13T05:59:51;12.97;;;1.67;;
19985;SDS011;10154;52.474;10.768;2023-01-13T06:02:16;15.30;;;2.07;;
19985;SDS011;10154;52.474;10.768;2023-01-13T06:04:42;11.90;;;1.97;;
19985;SDS011;10154;52.474;10.768;2023-01-13T06:07:07;9.43;;;1.60;;
19985;SDS011;10154;52.474;10.768;2023-01-13T06:09:32;11.60;;;1.70;;
19985;SDS011;10154;52.474;10.768;2023-01-13T06:11:58;11.57;;;2.63;;
19985;SDS011;10154;52.474;10.768;2023-01-13T06:14:23;10.40;;;1.50;;
19985;SDS011;10154;52.474;10.768;2023-01-13T06:16:48;7.17;;;1.63;;
19985;SDS011;10154;52.474;10.768;2023-01-13T06:19:14;9.37;;;1.70;;
19985;SDS011;10154;52.474;10.768;2023-01-13T06:21:39;10.17;;;1.90;;
19985;SDS011;10154;52.474;10.768;2023-01-13T06:24:05;9.93;;;2.50;;
19985;SDS011;10154;52.474;10.768;2023-01-13T06:26:35;9.77;;;1.67;;
19985;SDS011;10154;52.474;10.768;2023-01-13T06:29:02;14.30;;;1.97;;
19985;SDS011;10154;52.474;10.768;2023-01-13T06:31:28;12.33;;;2.27;;
19985;SDS011;10154;52.474;10.768;2023-01-13T06:33:55;12.80;;;2.00;;
19985;SDS011;10154;52.474;10.768;2023-01-13T06:36:28;11.23;;;2.27;;
19985;SDS011;10154;52.474;10.768;2023-01-13T06:39:05;12.67;;;2.23;;
19985;SDS011;10154;52.474;10.768;2023-01-13T06:41:34;12.97;;;2.33;;
19985;SDS011;10154;52.474;10.768;2023-01-13T06:44:18;15.57;;;2.80;;
19985;SDS011;10154;52.474;10.768;2023-01-13T06:46:44;14.33;;;2.63;;
19985;SDS011;10154;52.474;10.768;2023-01-13T06:49:10;18.57;;;2.70;;
19985;SDS011;10154;52.474;10.768;2023-01-13T06:51:35;16.93;;;2.47;;
19985;SDS011;10154;52.474;10.768;2023-01-13T06:54:01;14.07;;;2.57;;
19985;SDS011;10154;52.474;10.768;2023-01-13T06:56:26;17.23;;;2.10;;
19985;SDS011;10154;52.474;10.768;2023-01-13T06:58:51;14.90;;;2.20;;
19985;SDS011;10154;52.474;10.768;2023-01-13T07:01:17;14.10;;;2.40;;
19985;SDS011;10154;52.474;10.768;2023-01-13T07:03:42;9.83;;;2.20;;
19985;SDS011;10154;52.474;10.768;2023-01-13T07:06:07;17.67;;;2.43;;
19985;SDS011;10154;52.474;10.768;2023-01-13T07:08:33;12.60;;;2.77;;
19985;SDS011;10154;52.474;10.768;2023-01-13T07:11:00;14.60;;;2.37;;
19985;SDS011;10154;52.474;10.768;2023-01-13T07:13:26;9.00;;;1.80;;
19985;SDS011;10154;52.474;10.768;2023-01-13T07:16:09;14.67;;;1.87;;
19985;SDS011;10154;52.474;10.768;2023-01-13T07:18:35;11.57;;;2.30;;
19985;SDS011;10154;52.474;10.768;2023-01-13T07:21:01;14.60;;;2.47;;
19985;SDS011;10154;52.474;10.768;2023-01-13T07:23:32;10.30;;;2.03;;
19985;SDS011;10154;52.474;10.768;2023-01-13T07:26:01;11.73;;;2.40;;
19985;SDS011;10154;52.474;10.768;2023-01-13T07:28:27;9.23;;;1.50;;
19985;SDS011;10154;52.474;10.768;2023-01-13T07:30:53;13.63;;;1.80;;
19985;SDS011;10154;52.474;10.768;2023-01-13T07:33:19;8.80;;;1.60;;
19985;SDS011;10154;52.474;10.768;2023-01-13T07:35:44;11.83;;;1.53;;
19985;SDS011;10154;52.474;10.768;2023-01-13T07:38:10;7.63;;;1.47;;
19985;SDS011;10154;52.474;10.768;2023-01-13T07:40:36;13.00;;;1.60;;
19985;SDS011;10154;52.474;10.768;2023-01-13T07:43:02;4.30;;;1.13;;
19985;SDS011;10154;52.474;10.768;2023-01-13T07:45:46;8.20;;;1.50;;
19985;SDS011;10154;52.474;10.768;2023-01-13T07:48:11;6.33;;;1.30;;
19985;SDS011;10154;52.474;10.768;2023-01-13T07:50:37;4.87;;;1.10;;
19985;SDS011;10154;52.474;10.768;2023-01-13T07:53:02;9.87;;;1.40;;
19985;SDS011;10154;52.474;10.768;2023-01-13T07:55:28;9.60;;;1.43;;
19985;SDS011;10154;52.474;10.768;2023-01-13T07:57:53;9.63;;;1.30;;
19985;SDS011;10154;52.474;10.768;2023-01-13T08:00:18;9.30;;;1.63;;
19985;SDS011;10154;52.474;10.768;2023-01-13T08:02:47;7.37;;;1.30;;
19985;SDS011;10154;52.474;10.768;2023-01-13T08:05:12;12.87;;;1.53;;
19985;SDS011;10154;52.474;10.768;2023-01-13T08:07:37;12.77;;;2.10;;
19985;SDS011;10154;52.474;10.768;2023-01-13T08:10:04;17.30;;;1.90;;
19985;SDS011;10154;52.474;10.768;2023-01-13T08:12:30;9.50;;;1.40;;
19985;SDS011;10154;52.474;10.768;2023-01-13T08:15:14;12.13;;;2.10;;
19985;SDS011;10154;52.474;10.768;2023-01-13T08:17:40;10.97;;;1.43;;
19985;SDS011;10154;52.474;10.768;2023-01-13T08:20:05;13.03;;;1.33;;
19985;SDS011;10154;52.474;10.768;2023-01-13T08:22:31;14.23;;;2.40;;
19985;SDS011;10154;52.474;10.768;2023-01-13T08:24:57;6.20;;;1.20;;
19985;SDS011;10154;52.474;10.768;2023-01-13T08:27:26;8.37;;;1.80;;
19985;SDS011;10154;52.474;10.768;2023-01-13T08:29:51;10.97;;;1.60;;
19985;SDS011;10154;52.474;10.768;2023-01-13T08:32:16;20.20;;;1.63;;
19985;SDS011;10154;52.474;10.768;2023-01-13T08:34:42;8.90;;;1.60;;
19985;SDS011;10154;52.474;10.768;2023-01-13T08:37:07;9.07;;;1.83;;
19985;SDS011;10154;52.474;10.768;2023-01-13T08:39:32;13.87;;;1.70;;
19985;SDS011;10154;52.474;10.768;2023-01-13T08:41:59;9.53;;;1.53;;
19985;SDS011;10154;52.474;10.768;2023-01-13T08:44:26;7.47;;;1.37;;
19985;SDS011;10154;52.474;10.768;2023-01-13T08:46:53;12.97;;;1.47;;
19985;SDS011;10154;52.474;10.768;2023-01-13T08:49:19;8.73;;;1.60;;
19985;SDS011;10154;52.474;10.768;2023-01-13T08:51:45;12.90;;;2.03;;
19985;SDS011;10154;52.474;10.768;2023-01-13T08:54:11;12.30;;;1.70;;
19985;SDS011;10154;52.474;10.768;2023-01-13T08:56:36;13.37;;;1.87;;
19985;SDS011;10154;52.474;10.768;2023-01-13T08:59:03;12.80;;;1.60;;
19985;SDS011;10154;52.474;10.768;2023-01-13T09:01:28;13.20;;;1.50;;
19985;SDS011;10154;52.474;10.768;2023-01-13T09:03:54;12.77;;;2.23;;
19985;SDS011;10154;52.474;10.768;2023-01-13T09:06:19;8.67;;;1.73;;
19985;SDS011;10154;52.474;10.768;2023-01-13T09:08:45;10.93;;;1.27;;
19985;SDS011;10154;52.474;10.768;2023-01-13T09:11:14;9.87;;;1.30;;
19985;SDS011;10154;52.474;10.768;2023-01-13T09:14:00;11.60;;;1.80;;
19985;SDS011;10154;52.474;10.768;2023-01-13T09:16:26;9.47;;;1.73;;
19985;SDS011;10154;52.474;10.768;2023-01-13T09:18:51;14.30;;;2.03;;
19985;SDS011;10154;52.474;10.768;2023-01-13T09:21:16;9.60;;;1.57;;
19985;SDS011;10154;52.474;10.768;2023-01-13T09:23:43;15.47;;;1.83;;
19985;SDS011;10154;52.474;10.768;2023-01-13T09:26:09;8.33;;;1.50;;
19985;SDS011;10154;52.474;10.768;2023-01-13T09:28:35;10.50;;;1.40;;
19985;SDS011;10154;52.474;10.768;2023-01-13T09:31:01;6.17;;;1.20;;
19985;SDS011;10154;52.474;10.768;2023-01-13T09:33:26;10.73;;;1.30;;
19985;SDS011;10154;52.474;10.768;2023-01-13T09:36:10;10.37;;;1.60;;
19985;SDS011;10154;52.474;10.768;2023-01-13T09:38:36;10.93;;;1.57;;
19985;SDS011;10154;52.474;10.768;2023-01-13T09:41:01;8.80;;;1.50;;
19985;SDS011;10154;52.474;10.768;2023-01-13T09:43:47;10.60;;;1.40;;
19985;SDS011;10154;52.474;10.768;2023-01-13T09:46:21;5.90;;;1.37;;
19985;SDS011;10154;52.474;10.768;2023-01-13T09:49:13;8.77;;;1.37;;
19985;SDS011;10154;52.474;10.768;2023-01-13T09:51:48;7.83;;;1.30;;
19985;SDS011;10154;52.474;10.768;2023-01-13T09:54:24;6.40;;;1.17;;
19985;SDS011;10154;52.474;10.768;2023-01-13T09:56:54;8.33;;;1.00;;
19985;SDS011;10154;52.474;10.768;2023-01-13T09:59:20;9.90;;;1.37;;
19985;SDS011;10154;52.474;10.768;2023-01-13T10:01:52;10.33;;;1.50;;
19985;SDS011;10154;52.474;10.768;2023-01-13T10:04:23;5.80;;;1.53;;
19985;SDS011;10154;52.474;10.768;2023-01-13T10:06:51;11.83;;;1.37;;
19985;SDS011;10154;52.474;10.768;2023-01-13T10:09:21;6.53;;;1.03;;
19985;SDS011;10154;52.474;10.768;2023-01-13T10:11:51;7.37;;;1.50;;
19985;SDS011;10154;52.474;10.768;2023-01-13T10:14:41;7.87;;;1.50;;
19985;SDS011;10154;52.474;10.768;2023-01-13T10:17:16;11.37;;;1.57;;
19985;SDS011;10154;52.474;10.768;2023-01-13T10:19:50;9.43;;;1.10;;
19985;SDS011;10154;52.474;10.768;2023-01-13T10:22:45;8.60;;;1.60;;
19985;SDS011;10154;52.474;10.768;2023-01-13T10:28:23;9.83;;;1.60;;
19985;SDS011;10154;52.474;10.768;2023-01-13T10:30:50;8.80;;;1.60;;
19985;SDS011;10154;52.474;10.768;2023-01-13T10:33:20;14.20;;;2.20;;
19985;SDS011;10154;52.474;10.768;2023-01-13T10:35:50;14.27;;;1.80;;
19985;SDS011;10154;52.474;10.768;2023-01-13T10:38:18;12.17;;;2.10;;
19985;SDS011;10154;52.474;10.768;2023-01-13T10:40:50;10.20;;;1.87;;
19985;SDS011;10154;52.474;10.768;2023-01-13T10:43:19;9.00;;;1.50;;
19985;SDS011;10154;52.474;10.768;2023-01-13T10:48:41;5.87;;;1.20;;
19985;SDS011;10154;52.474;10.768;2023-01-13T10:51:14;9.90;;;1.53;;
19985;SDS011;10154;52.474;10.768;2023-01-13T10:53:52;10.23;;;1.67;;
19985;SDS011;10154;52.474;10.768;2023-01-13T10:56:23;9.43;;;1.33;;
19985;SDS011;10154;52.474;10.768;2023-01-13T10:58:51;6.83;;;1.57;;
19985;SDS011;10154;52.474;10.768;2023-01-13T11:01:21;12.07;;;1.67;;
19985;SDS011;10154;52.474;10.768;2023-01-13T11:03:49;10.10;;;1.33;;
19985;SDS011;10154;52.474;10.768;2023-01-13T11:06:20;11.63;;;1.30;;
19985;SDS011;10154;52.474;10.768;2023-01-13T11:08:50;8.67;;;2.10;;
19985;SDS011;10154;52.474;10.768;2023-01-13T11:16:59;11.23;;;1.30;;
19985;SDS011;10154;52.474;10.768;2023-01-13T11:19:43;11.97;;;2.00;;
19985;SDS011;10154;52.474;10.768;2023-01-13T11:22:15;14.03;;;1.83;;
19985;SDS011;10154;52.474;10.768;2023-01-13T11:24:51;7.67;;;1.23;;
19985;SDS011;10154;52.474;10.768;2023-01-13T11:41:07;12.43;;;1.87;;
19985;SDS011;10154;52.474;10.768;2023-01-13T11:43:44;11.37;;;1.60;;
19985;SDS011;10154;52.474;10.768;2023-01-13T11:46:14;14.23;;;1.80;;
19985;SDS011;10154;52.474;10.768;2023-01-13T11:48:40;6.97;;;1.30;;
19985;SDS011;10154;52.474;10.768;2023-01-13T12:01:51;8.80;;;1.67;;
19985;SDS011;10154;52.474;10.768;2023-01-13T12:06:49;9.43;;;1.37;;
19985;SDS011;10154;52.474;10.768;2023-01-13T12:15:27;9.63;;;1.57;;
19985;SDS011;10154;52.474;10.768;2023-01-13T12:18:33;12.07;;;1.70;;
19985;SDS011;10154;52.474;10.768;2023-01-13T12:26:15;12.73;;;2.00;;
19985;SDS011;10154;52.474;10.768;2023-01-13T12:28:48;8.20;;;1.07;;
19985;SDS011;10154;52.474;10.768;2023-01-13T12:31:22;5.57;;;0.80;;
19985;SDS011;10154;52.474;10.768;2023-01-13T12:41:33;12.13;;;1.67;;
19985;SDS011;10154;52.474;10.768;2023-01-13T12:45:03;10.87;;;1.70;;
19985;SDS011;10154;52.474;10.768;2023-01-13T12:47:36;10.13;;;1.80;;
19985;SDS011;10154;52.474;10.768;2023-01-13T12:52:46;11.20;;;1.77;;
19985;SDS011;10154;52.474;10.768;2023-01-13T12:55:16;10.70;;;1.90;;
19985;SDS011;10154;52.474;10.768;2023-01-13T13:06:18;8.97;;;1.50;;
19985;SDS011;10154;52.474;10.768;2023-01-13T13:13:56;16.57;;;2.50;;
19985;SDS011;10154;52.474;10.768;2023-01-13T13:18:49;12.43;;;1.97;;
19985;SDS011;10154;52.474;10.768;2023-01-13T13:21:14;12.70;;;2.03;;
19985;SDS011;10154;52.474;10.768;2023-01-13T13:23:42;9.97;;;2.27;;
19985;SDS011;10154;52.474;10.768;2023-01-13T13:29:10;9.63;;;1.47;;
19985;SDS011;10154;52.474;10.768;2023-01-13T13:32:00;10.83;;;1.50;;
19985;SDS011;10154;52.474;10.768;2023-01-13T13:40:41;10.83;;;1.87;;
19985;SDS011;10154;52.474;10.768;2023-01-13T13:43:28;11.37;;;1.70;;
19985;SDS011;10154;52.474;10.768;2023-01-13T13:46:25;15.90;;;2.20;;
19985;SDS011;10154;52.474;10.768;2023-01-13T13:49:09;13.93;;;1.90;;
19985;SDS011;10154;52.474;10.768;2023-01-13T13:51:37;11.03;;;1.70;;
19985;SDS011;10154;52.474;10.768;2023-01-13T13:54:10;12.23;;;1.60;;
19985;SDS011;10154;52.474;10.768;2023-01-13T13:56:40;11.17;;;2.30;;
19985;SDS011;10154;52.474;10.768;2023-01-13T13:59:11;13.27;;;2.50;;
19985;SDS011;10154;52.474;10.768;2023-01-13T14:01:37;13.03;;;2.07;;
19985;SDS011;10154;52.474;10.768;2023-01-13T14:06:51;14.20;;;1.83;;
19985;SDS011;10154;52.474;10.768;2023-01-13T14:09:39;14.17;;;1.97;;
19985;SDS011;10154;52.474;10.768;2023-01-13T14:12:13;16.30;;;2.17;;
19985;SDS011;10154;52.474;10.768;2023-01-13T14:14:45;14.17;;;2.30;;
19985;SDS011;10154;52.474;10.768;2023-01-13T14:17:18;10.07;;;1.97;;
19985;SDS011;10154;52.474;10.768;2023-01-13T14:19:59;14.57;;;2.17;;
19985;SDS011;10154;52.474;10.768;2023-01-13T14:22:26;10.43;;;1.80;;
19985;SDS011;10154;52.474;10.768;2023-01-13T14:24:52;16.80;;;1.97;;
19985;SDS011;10154;52.474;10.768;2023-01-13T14:27:22;14.37;;;2.37;;
19985;SDS011;10154;52.474;10.768;2023-01-13T14:29:55;15.97;;;2.30;;
19985;SDS011;10154;52.474;10.768;2023-01-13T14:32:29;14.23;;;2.27;;
19985;SDS011;10154;52.474;10.768;2023-01-13T14:34:57;17.70;;;2.60;;
19985;SDS011;10154;52.474;10.768;2023-01-13T14:40:04;12.13;;;2.00;;
19985;SDS011;10154;52.474;10.768;2023-01-13T14:42:30;8.90;;;1.87;;
19985;SDS011;10154;52.474;10.768;2023-01-13T14:44:59;10.73;;;1.70;;
19985;SDS011;10154;52.474;10.768;2023-01-13T14:47:29;14.47;;;2.50;;
19985;SDS011;10154;52.474;10.768;2023-01-13T14:49:58;19.20;;;2.30;;
19985;SDS011;10154;52.474;10.768;2023-01-13T14:52:47;14.10;;;2.07;;
19985;SDS011;10154;52.474;10.768;2023-01-13T14:55:22;10.93;;;2.27;;
19985;SDS011;10154;52.474;10.768;2023-01-13T14:57:48;12.70;;;2.33;;
19985;SDS011;10154;52.474;10.768;2023-01-13T15:10:28;13.40;;;2.47;;
19985;SDS011;10154;52.474;10.768;2023-01-13T15:12:58;11.93;;;2.20;;
19985;SDS011;10154;52.474;10.768;2023-01-13T15:15:26;15.30;;;2.37;;
19985;SDS011;10154;52.474;10.768;2023-01-13T15:17:59;14.50;;;1.90;;
19985;SDS011;10154;52.474;10.768;2023-01-13T15:20:25;15.17;;;2.33;;
19985;SDS011;10154;52.474;10.768;2023-01-13T15:22:54;21.87;;;2.70;;
19985;SDS011;10154;52.474;10.768;2023-01-13T15:25:22;11.30;;;2.00;;
19985;SDS011;10154;52.474;10.768;2023-01-13T15:27:49;19.17;;;2.40;;
19985;SDS011;10154;52.474;10.768;2023-01-13T15:30:17;13.00;;;2.00;;
19985;SDS011;10154;52.474;10.768;2023-01-13T15:32:45;10.77;;;1.90;;
19985;SDS011;10154;52.474;10.768;2023-01-13T15:35:14;10.60;;;1.90;;
19985;SDS011;10154;52.474;10.768;2023-01-13T15:37:40;12.10;;;2.00;;
19985;SDS011;10154;52.474;10.768;2023-01-13T15:40:25;16.53;;;2.50;;
19985;SDS011;10154;52.474;10.768;2023-01-13T15:42:55;17.30;;;2.03;;
19985;SDS011;10154;52.474;10.768;2023-01-13T15:45:40;14.10;;;2.60;;
19985;SDS011;10154;52.474;10.768;2023-01-13T15:48:24;13.80;;;2.47;;
19985;SDS011;10154;52.474;10.768;2023-01-13T15:50:50;8.63;;;1.90;;
19985;SDS011;10154;52.474;10.768;2023-01-13T15:53:16;14.23;;;2.23;;
19985;SDS011;10154;52.474;10.768;2023-01-13T15:55:42;12.13;;;2.17;;
19985;SDS011;10154;52.474;10.768;2023-01-13T15:58:12;12.13;;;2.10;;
19985;SDS011;10154;52.474;10.768;2023-01-13T16:00:37;11.97;;;2.30;;
19985;SDS011;10154;52.474;10.768;2023-01-13T16:03:03;11.07;;;2.07;;
19985;SDS011;10154;52.474;10.768;2023-01-13T16:05:28;11.20;;;2.40;;
19985;SDS011;10154;52.474;10.768;2023-01-13T16:07:54;17.23;;;2.70;;
19985;SDS011;10154;52.474;10.768;2023-01-13T16:10:24;11.97;;;2.00;;
19985;SDS011;10154;52.474;10.768;2023-01-13T16:12:51;12.87;;;2.20;;
19985;SDS011;10154;52.474;10.768;2023-01-13T16:15:17;10.50;;;1.87;;
19985;SDS011;10154;52.474;10.768;2023-01-13T16:17:46;14.07;;;2.30;;
19985;SDS011;10154;52.474;10.768;2023-01-13T16:20:16;8.90;;;1.60;;
19985;SDS011;10154;52.474;10.768;2023-01-13T16:22:42;10.70;;;2.10;;
19985;SDS011;10154;52.474;10.768;2023-01-13T16:25:19;10.07;;;2.20;;
19985;SDS011;10154;52.474;10.768;2023-01-13T16:27:49;8.27;;;1.70;;
19985;SDS011;10154;52.474;10.768;2023-01-13T16:30:25;13.73;;;1.80;;
19985;SDS011;10154;52.474;10.768;2023-01-13T16:32:56;12.37;;;2.80;;
19985;SDS011;10154;52.474;10.768;2023-01-13T16:35:22;18.30;;;3.67;;
19985;SDS011;10154;52.474;10.768;2023-01-13T16:37:48;18.43;;;3.30;;
19985;SDS011;10154;52.474;10.768;2023-01-13T16:40:17;10.83;;;2.10;;
19985;SDS011;10154;52.474;10.768;2023-01-13T16:42:46;7.23;;;1.63;;
19985;SDS011;10154;52.474;10.768;2023-01-13T16:45:11;12.93;;;2.10;;
19985;SDS011;10154;52.474;10.768;2023-01-13T16:47:36;8.47;;;1.50;;
19985;SDS011;10154;52.474;10.768;2023-01-13T16:50:03;7.97;;;1.20;;
19985;SDS011;10154;52.474;10.768;2023-01-13T16:52:28;9.07;;;1.63;;
19985;SDS011;10154;52.474;10.768;2023-01-13T16:54:54;10.13;;;1.43;;
19985;SDS011;10154;52.474;10.768;2023-01-13T16:57:19;9.63;;;1.60;;
19985;SDS011;10154;52.474;10.768;2023-01-13T16:59:45;9.20;;;1.60;;
19985;SDS011;10154;52.474;10.768;2023-01-13T17:02:11;7.70;;;1.60;;
19985;SDS011;10154;52.474;10.768;2023-01-13T17:04:37;5.40;;;1.53;;
19985;SDS011;10154;52.474;10.768;2023-01-13T17:07:03;11.83;;;2.13;;